sensor_id;sensor_type;location;lat;lon;timestamp;pressure;altitude;pressure_sealevel;temperature;humidity
69402;BME280;56589;51.992;5.924;2023-02-13T00:00:35;103201.31;;;6.73;71.23
69402;BME280;56589;51.992;5.924;2023-02-13T00:03:02;103197.84;;;6.71;71.22
69402;BME280;56589;51.992;5.924;2023-02-13T00:05:28;103201.31;;;6.70;71.57
69402;BME280;56589;51.992;5.924;2023-02-13T00:07:54;103206.53;;;6.72;71.66
69402;BME280;56589;51.992;5.924;2023-02-13T00:10:20;103199.59;;;6.71;71.27
69402;BME280;56589;51.992;5.924;2023-02-13T00:12:45;103181.34;;;6.68;71.45
69402;BME280;56589;51.992;5.924;2023-02-13T00:15:14;103186.56;;;6.66;71.71
69402;BME280;56589;51.992;5.924;2023-02-13T00:17:40;103192.69;;;6.64;71.65
69402;BME280;56589;51.992;5.924;2023-02-13T00:20:09;103188.34;;;6.63;71.70
69402;BME280;56589;51.992;5.924;2023-02-13T00:22:37;103177.94;;;6.60;71.68
69402;BME280;56589;51.992;5.924;2023-02-13T00:25:04;103178.81;;;6.59;71.88
69402;BME280;56589;51.992;5.924;2023-02-13T00:27:31;103169.28;;;6.56;71.34
69402;BME280;56589;51.992;5.924;2023-02-13T00:29:58;103170.16;;;6.53;71.36
69402;BME280;56589;51.992;5.924;2023-02-13T00:32:26;103171.91;;;6.53;71.41
69402;BME280;56589;51.992;5.924;2023-02-13T00:34:52;103171.88;;;6.54;71.89
69402;BME280;56589;51.992;5.924;2023-02-13T00:37:18;103171.00;;;6.54;71.84
69402;BME280;56589;51.992;5.924;2023-02-13T00:39:44;103168.41;;;6.54;71.44
69402;BME280;56589;51.992;5.924;2023-02-13T00:42:10;103163.22;;;6.51;71.79
69402;BME280;56589;51.992;5.924;2023-02-13T00:44:36;103170.22;;;6.49;71.73
69402;BME280;56589;51.992;5.924;2023-02-13T00:47:04;103164.13;;;6.45;71.59
69402;BME280;56589;51.992;5.924;2023-02-13T00:49:32;103172.84;;;6.44;71.68
69402;BME280;56589;51.992;5.924;2023-02-13T00:52:00;103177.19;;;6.45;72.13
69402;BME280;56589;51.992;5.924;2023-02-13T00:54:26;103177.19;;;6.45;71.76
69402;BME280;56589;51.992;5.924;2023-02-13T00:56:52;103175.44;;;6.46;71.67
69402;BME280;56589;51.992;5.924;2023-02-13T00:59:18;103173.69;;;6.48;71.96
69402;BME280;56589;51.992;5.924;2023-02-13T01:01:44;103172.81;;;6.47;72.11
69402;BME280;56589;51.992;5.924;2023-02-13T01:04:10;103164.97;;;6.47;71.78
69402;BME280;56589;51.992;5.924;2023-02-13T01:06:38;103161.50;;;6.48;72.05
69402;BME280;56589;51.992;5.924;2023-02-13T01:09:04;103167.59;;;6.47;72.12
69402;BME280;56589;51.992;5.924;2023-02-13T01:11:30;103167.63;;;6.46;72.21
69402;BME280;56589;51.992;5.924;2023-02-13T01:13:56;103171.97;;;6.45;72.03
69402;BME280;56589;51.992;5.924;2023-02-13T01:16:22;103177.19;;;6.45;72.43
69402;BME280;56589;51.992;5.924;2023-02-13T01:18:48;103168.47;;;6.46;72.47
69402;BME280;56589;51.992;5.924;2023-02-13T01:21:16;103173.72;;;6.45;72.03
69402;BME280;56589;51.992;5.924;2023-02-13T01:23:46;103178.88;;;6.48;71.99
69402;BME280;56589;51.992;5.924;2023-02-13T01:26:16;103172.81;;;6.50;72.21
69402;BME280;56589;51.992;5.924;2023-02-13T01:28:44;103173.66;;;6.51;72.36
69402;BME280;56589;51.992;5.924;2023-02-13T01:31:10;103172.75;;;6.53;72.20
69402;BME280;56589;51.992;5.924;2023-02-13T01:33:36;103169.25;;;6.54;72.07
69402;BME280;56589;51.992;5.924;2023-02-13T01:36:05;103166.66;;;6.56;72.11
69402;BME280;56589;51.992;5.924;2023-02-13T01:38:32;103164.06;;;6.53;72.04
69402;BME280;56589;51.992;5.924;2023-02-13T01:41:01;103164.94;;;6.52;72.35
69402;BME280;56589;51.992;5.924;2023-02-13T01:43:43;103161.44;;;6.54;72.48
69402;BME280;56589;51.992;5.924;2023-02-13T01:46:11;103158.81;;;6.54;72.33
69402;BME280;56589;51.992;5.924;2023-02-13T01:48:40;103153.59;;;6.54;72.60
69402;BME280;56589;51.992;5.924;2023-02-13T01:51:08;103151.88;;;6.53;72.65
69402;BME280;56589;51.992;5.924;2023-02-13T01:53:39;103148.38;;;6.54;72.51
69402;BME280;56589;51.992;5.924;2023-02-13T01:56:15;103149.28;;;6.55;72.19
69402;BME280;56589;51.992;5.924;2023-02-13T01:58:48;103151.00;;;6.54;72.52
69402;BME280;56589;51.992;5.924;2023-02-13T02:01:18;103151.88;;;6.57;72.35
69402;BME280;56589;51.992;5.924;2023-02-13T02:03:48;103160.53;;;6.59;72.33
69402;BME280;56589;51.992;5.924;2023-02-13T02:06:23;103147.47;;;6.60;72.51
69402;BME280;56589;51.992;5.924;2023-02-13T02:08:52;103156.16;;;6.61;72.64
69402;BME280;56589;51.992;5.924;2023-02-13T02:11:38;103152.69;;;6.60;72.37
69402;BME280;56589;51.992;5.924;2023-02-13T02:14:11;103144.88;;;6.59;72.52
69402;BME280;56589;51.992;5.924;2023-02-13T02:16:38;103148.41;;;6.56;72.94
69402;BME280;56589;51.992;5.924;2023-02-13T02:19:09;103143.16;;;6.54;72.92
69402;BME280;56589;51.992;5.924;2023-02-13T02:22:15;103147.53;;;6.52;72.95
69402;BME280;56589;51.992;5.924;2023-02-13T02:25:17;103146.66;;;6.53;73.09
69402;BME280;56589;51.992;5.924;2023-02-13T02:28:38;103150.13;;;6.54;73.10
69402;BME280;56589;51.992;5.924;2023-02-13T02:34:42;103142.28;;;6.57;72.92
69402;BME280;56589;51.992;5.924;2023-02-13T02:37:27;103135.31;;;6.59;72.99
69402;BME280;56589;51.992;5.924;2023-02-13T02:40:15;103144.00;;;6.60;73.11
69402;BME280;56589;51.992;5.924;2023-02-13T02:42:59;103135.31;;;6.59;72.88
69402;BME280;56589;51.992;5.924;2023-02-13T02:45:39;103138.78;;;6.58;73.44
69402;BME280;56589;51.992;5.924;2023-02-13T02:48:24;103138.81;;;6.57;73.27
69402;BME280;56589;51.992;5.924;2023-02-13T02:50:59;103141.44;;;6.57;73.45
69402;BME280;56589;51.992;5.924;2023-02-13T02:53:36;103137.03;;;6.59;73.60
69402;BME280;56589;51.992;5.924;2023-02-13T02:56:12;103137.03;;;6.60;73.53
69402;BME280;56589;51.992;5.924;2023-02-13T02:58:46;103144.84;;;6.63;73.11
69402;BME280;56589;51.992;5.924;2023-02-13T03:01:22;103131.78;;;6.63;73.20
69402;BME280;56589;51.992;5.924;2023-02-13T03:03:55;103141.34;;;6.64;73.52
69402;BME280;56589;51.992;5.924;2023-02-13T03:06:26;103130.03;;;6.64;73.53
69402;BME280;56589;51.992;5.924;2023-02-13T03:09:00;103131.75;;;6.65;73.20
69402;BME280;56589;51.992;5.924;2023-02-13T03:11:30;103132.66;;;6.64;73.60
69402;BME280;56589;51.992;5.924;2023-02-13T03:13:59;103130.88;;;6.66;73.35
69402;BME280;56589;51.992;5.924;2023-02-13T03:16:30;103122.16;;;6.67;73.48
69402;BME280;56589;51.992;5.924;2023-02-13T03:18:59;103122.16;;;6.70;73.47
69402;BME280;56589;51.992;5.924;2023-02-13T03:21:33;103125.63;;;6.70;73.40
69402;BME280;56589;51.992;5.924;2023-02-13T03:24:18;103129.94;;;6.71;73.71
69402;BME280;56589;51.992;5.924;2023-02-13T03:26:56;103124.72;;;6.74;73.75
69402;BME280;56589;51.992;5.924;2023-02-13T03:29:41;103136.03;;;6.75;73.74
69402;BME280;56589;51.992;5.924;2023-02-13T03:32:20;103136.03;;;6.75;73.67
69402;BME280;56589;51.992;5.924;2023-02-13T03:34:57;103143.84;;;6.75;73.56
69402;BME280;56589;51.992;5.924;2023-02-13T03:37:34;103137.75;;;6.73;73.63
69402;BME280;56589;51.992;5.924;2023-02-13T03:40:13;103142.09;;;6.75;73.68
69402;BME280;56589;51.992;5.924;2023-02-13T03:42:46;103141.25;;;6.75;73.36
69402;BME280;56589;51.992;5.924;2023-02-13T03:45:20;103135.16;;;6.74;73.82
69402;BME280;56589;51.992;5.924;2023-02-13T03:47:54;103139.53;;;6.74;73.82
69402;BME280;56589;51.992;5.924;2023-02-13T03:50:26;103142.97;;;6.73;73.64
69402;BME280;56589;51.992;5.924;2023-02-13T03:52:57;103142.13;;;6.74;73.60
69402;BME280;56589;51.992;5.924;2023-02-13T03:55:31;103146.50;;;6.73;73.95
69402;BME280;56589;51.992;5.924;2023-02-13T03:58:04;103139.50;;;6.72;73.74
69402;BME280;56589;51.992;5.924;2023-02-13T04:00:38;103143.88;;;6.73;73.61
69402;BME280;56589;51.992;5.924;2023-02-13T04:03:12;103144.75;;;6.74;73.78
69402;BME280;56589;51.992;5.924;2023-02-13T04:05:48;103147.34;;;6.74;74.00
69402;BME280;56589;51.992;5.924;2023-02-13T04:08:18;103139.53;;;6.71;73.58
69402;BME280;56589;51.992;5.924;2023-02-13T04:10:50;103143.03;;;6.70;73.73
69402;BME280;56589;51.992;5.924;2023-02-13T04:13:26;103144.81;;;6.68;74.17
69402;BME280;56589;51.992;5.924;2023-02-13T04:16:02;103144.81;;;6.68;74.24
69402;BME280;56589;51.992;5.924;2023-02-13T04:18:35;103146.56;;;6.67;74.00
69402;BME280;56589;51.992;5.924;2023-02-13T04:21:06;103146.53;;;6.69;73.85
69402;BME280;56589;51.992;5.924;2023-02-13T04:23:32;103136.06;;;6.70;74.29
69402;BME280;56589;51.992;5.924;2023-02-13T04:26:00;103145.63;;;6.71;73.98
69402;BME280;56589;51.992;5.924;2023-02-13T04:28:30;103149.09;;;6.72;74.17
69402;BME280;56589;51.992;5.924;2023-02-13T04:30:56;103149.09;;;6.73;74.25
69402;BME280;56589;51.992;5.924;2023-02-13T04:33:22;103142.13;;;6.72;74.25
69402;BME280;56589;51.992;5.924;2023-02-13T04:35:48;103149.06;;;6.75;74.12
69402;BME280;56589;51.992;5.924;2023-02-13T04:38:16;103136.03;;;6.72;73.94
69402;BME280;56589;51.992;5.924;2023-02-13T04:40:42;103146.47;;;6.72;74.04
69402;BME280;56589;51.992;5.924;2023-02-13T04:43:08;103142.16;;;6.71;74.44
69402;BME280;56589;51.992;5.924;2023-02-13T04:45:34;103143.91;;;6.70;74.09
69402;BME280;56589;51.992;5.924;2023-02-13T04:48:00;103141.28;;;6.70;74.45
69402;BME280;56589;51.992;5.924;2023-02-13T04:50:26;103146.53;;;6.69;74.19
69402;BME280;56589;51.992;5.924;2023-02-13T04:52:52;103143.03;;;6.67;74.31
69402;BME280;56589;51.992;5.924;2023-02-13T04:55:21;103148.25;;;6.70;74.38
69402;BME280;56589;51.992;5.924;2023-02-13T04:57:49;103134.31;;;6.71;74.44
69402;BME280;56589;51.992;5.924;2023-02-13T05:00:17;103142.13;;;6.72;74.42
69402;BME280;56589;51.992;5.924;2023-02-13T05:02:44;103141.28;;;6.70;74.26
69402;BME280;56589;51.992;5.924;2023-02-13T05:05:11;103132.59;;;6.70;74.76
69402;BME280;56589;51.992;5.924;2023-02-13T05:07:37;103129.13;;;6.68;74.85
69402;BME280;56589;51.992;5.924;2023-02-13T05:10:04;103129.13;;;6.66;74.52
69402;BME280;56589;51.992;5.924;2023-02-13T05:12:33;103123.06;;;6.67;74.80
69402;BME280;56589;51.992;5.924;2023-02-13T05:14:59;103118.69;;;6.68;74.51
69402;BME280;56589;51.992;5.924;2023-02-13T05:17:25;103121.31;;;6.68;74.79
69402;BME280;56589;51.992;5.924;2023-02-13T05:19:51;103116.06;;;6.66;74.85
69402;BME280;56589;51.992;5.924;2023-02-13T05:22:16;103118.69;;;6.68;74.72
69402;BME280;56589;51.992;5.924;2023-02-13T05:24:42;103118.69;;;6.68;74.55
69402;BME280;56589;51.992;5.924;2023-02-13T05:27:08;103120.41;;;6.69;74.63
69402;BME280;56589;51.992;5.924;2023-02-13T05:29:36;103120.41;;;6.70;74.95
69402;BME280;56589;51.992;5.924;2023-02-13T05:32:02;103116.94;;;6.70;74.50
69402;BME280;56589;51.992;5.924;2023-02-13T05:34:28;103112.56;;;6.70;74.50
69402;BME280;56589;51.992;5.924;2023-02-13T05:36:54;103121.25;;;6.72;75.03
69402;BME280;56589;51.992;5.924;2023-02-13T05:39:20;103118.63;;;6.74;74.78
69402;BME280;56589;51.992;5.924;2023-02-13T05:41:47;103115.13;;;6.75;74.70
69402;BME280;56589;51.992;5.924;2023-02-13T05:44:14;103117.72;;;6.76;74.67
69402;BME280;56589;51.992;5.924;2023-02-13T05:46:44;103114.22;;;6.77;74.89
69402;BME280;56589;51.992;5.924;2023-02-13T05:49:10;103116.88;;;6.76;74.68
69402;BME280;56589;51.992;5.924;2023-02-13T05:51:37;103110.78;;;6.75;74.46
69402;BME280;56589;51.992;5.924;2023-02-13T05:54:03;103115.16;;;6.72;74.47
69402;BME280;56589;51.992;5.924;2023-02-13T05:56:29;103115.19;;;6.69;74.77
69402;BME280;56589;51.992;5.924;2023-02-13T05:58:56;103109.13;;;6.65;74.88
69402;BME280;56589;51.992;5.924;2023-02-13T06:01:23;103111.78;;;6.64;74.83
69402;BME280;56589;51.992;5.924;2023-02-13T06:03:52;103108.31;;;6.60;74.87
69402;BME280;56589;51.992;5.924;2023-02-13T06:06:17;103117.00;;;6.61;75.05
69402;BME280;56589;51.992;5.924;2023-02-13T06:08:43;103110.06;;;6.61;75.07
69402;BME280;56589;51.992;5.924;2023-02-13T06:11:10;103110.06;;;6.61;75.09
69402;BME280;56589;51.992;5.924;2023-02-13T06:13:36;103109.19;;;6.62;75.44
69402;BME280;56589;51.992;5.924;2023-02-13T06:16:02;103116.16;;;6.62;75.40
69402;BME280;56589;51.992;5.924;2023-02-13T06:18:28;103119.63;;;6.62;75.01
69402;BME280;56589;51.992;5.924;2023-02-13T06:20:56;103115.28;;;6.61;75.12
69402;BME280;56589;51.992;5.924;2023-02-13T06:23:22;103112.66;;;6.60;75.38
69402;BME280;56589;51.992;5.924;2023-02-13T06:25:48;103105.69;;;6.60;75.67
69402;BME280;56589;51.992;5.924;2023-02-13T06:28:13;103109.19;;;6.59;75.36
69402;BME280;56589;51.992;5.924;2023-02-13T06:30:39;103109.19;;;6.59;75.31
69402;BME280;56589;51.992;5.924;2023-02-13T06:33:05;103112.69;;;6.61;75.75
69402;BME280;56589;51.992;5.924;2023-02-13T06:35:31;103109.16;;;6.64;75.26
69402;BME280;56589;51.992;5.924;2023-02-13T06:38:01;103114.34;;;6.65;75.33
69402;BME280;56589;51.992;5.924;2023-02-13T06:40:28;103112.63;;;6.64;75.41
69402;BME280;56589;51.992;5.924;2023-02-13T06:42:54;103115.22;;;6.66;75.70
69402;BME280;56589;51.992;5.924;2023-02-13T06:45:20;103116.94;;;6.67;75.32
69402;BME280;56589;51.992;5.924;2023-02-13T06:47:47;103123.91;;;6.68;75.57
69402;BME280;56589;51.992;5.924;2023-02-13T06:50:15;103121.28;;;6.69;75.54
69402;BME280;56589;51.992;5.924;2023-02-13T06:52:45;103128.22;;;6.70;75.70
69402;BME280;56589;51.992;5.924;2023-02-13T06:55:24;103115.19;;;6.69;75.46
69402;BME280;56589;51.992;5.924;2023-02-13T06:57:50;103131.75;;;6.68;75.48
69402;BME280;56589;51.992;5.924;2023-02-13T07:00:17;103127.38;;;6.67;75.75
69402;BME280;56589;51.992;5.924;2023-02-13T07:02:45;103135.19;;;6.70;76.06
69402;BME280;56589;51.992;5.924;2023-02-13T07:05:12;103138.66;;;6.72;75.78
69402;BME280;56589;51.992;5.924;2023-02-13T07:07:41;103136.91;;;6.74;75.90
69402;BME280;56589;51.992;5.924;2023-02-13T07:10:10;103146.44;;;6.76;75.60
69402;BME280;56589;51.992;5.924;2023-02-13T07:12:39;103147.28;;;6.78;75.59
69402;BME280;56589;51.992;5.924;2023-02-13T07:15:06;103141.22;;;6.79;75.65
69402;BME280;56589;51.992;5.924;2023-02-13T07:17:33;103149.00;;;6.82;75.62
69402;BME280;56589;51.992;5.924;2023-02-13T07:19:59;103150.69;;;6.85;75.57
69402;BME280;56589;51.992;5.924;2023-02-13T07:22:24;103151.56;;;6.87;75.70
69402;BME280;56589;51.992;5.924;2023-02-13T07:24:50;103141.97;;;6.88;75.49
69402;BME280;56589;51.992;5.924;2023-02-13T07:27:17;103145.44;;;6.90;75.39
69402;BME280;56589;51.992;5.924;2023-02-13T07:29:45;103148.88;;;6.93;75.62
69402;BME280;56589;51.992;5.924;2023-02-13T07:32:11;103153.25;;;6.93;75.25
69402;BME280;56589;51.992;5.924;2023-02-13T07:34:37;103155.00;;;6.92;75.45
69402;BME280;56589;51.992;5.924;2023-02-13T07:37:02;103160.22;;;6.92;75.78
69402;BME280;56589;51.992;5.924;2023-02-13T07:39:28;103159.31;;;6.95;75.85
69402;BME280;56589;51.992;5.924;2023-02-13T07:41:54;103157.56;;;6.95;75.82
69402;BME280;56589;51.992;5.924;2023-02-13T07:44:20;103161.94;;;6.93;75.37
69402;BME280;56589;51.992;5.924;2023-02-13T07:46:48;103161.09;;;6.93;75.47
69402;BME280;56589;51.992;5.924;2023-02-13T07:49:14;103165.38;;;6.95;75.83
69402;BME280;56589;51.992;5.924;2023-02-13T07:51:40;103167.13;;;6.96;75.62
69402;BME280;56589;51.992;5.924;2023-02-13T07:54:06;103164.50;;;6.96;75.55
69402;BME280;56589;51.992;5.924;2023-02-13T07:56:32;103166.22;;;6.97;75.47
69402;BME280;56589;51.992;5.924;2023-02-13T07:58:57;103165.34;;;7.00;75.68
69402;BME280;56589;51.992;5.924;2023-02-13T08:01:23;103179.22;;;7.03;75.87
69402;BME280;56589;51.992;5.924;2023-02-13T08:03:52;103169.63;;;7.04;75.47
69402;BME280;56589;51.992;5.924;2023-02-13T08:06:18;103174.00;;;7.05;75.40
69402;BME280;56589;51.992;5.924;2023-02-13T08:08:47;103180.88;;;7.12;75.88
69402;BME280;56589;51.992;5.924;2023-02-13T08:11:22;103169.56;;;7.13;75.52
69402;BME280;56589;51.992;5.924;2023-02-13T08:13:52;103174.75;;;7.15;75.31
69402;BME280;56589;51.992;5.924;2023-02-13T08:16:18;103173.81;;;7.20;75.62
69402;BME280;56589;51.992;5.924;2023-02-13T08:18:44;103168.56;;;7.22;75.25
69402;BME280;56589;51.992;5.924;2023-02-13T08:21:12;103169.44;;;7.22;75.26
69402;BME280;56589;51.992;5.924;2023-02-13T08:23:38;103162.47;;;7.21;75.21
69402;BME280;56589;51.992;5.924;2023-02-13T08:26:04;103169.44;;;7.24;75.39
69402;BME280;56589;51.992;5.924;2023-02-13T08:28:30;103167.63;;;7.27;75.65
69402;BME280;56589;51.992;5.924;2023-02-13T08:30:55;103169.34;;;7.30;75.23
69402;BME280;56589;51.992;5.924;2023-02-13T08:33:21;103170.19;;;7.37;75.52
69402;BME280;56589;51.992;5.924;2023-02-13T08:35:47;103172.72;;;7.43;75.18
69402;BME280;56589;51.992;5.924;2023-02-13T08:38:15;103170.88;;;7.49;75.09
69402;BME280;56589;51.992;5.924;2023-02-13T08:40:43;103180.44;;;7.53;75.28
69402;BME280;56589;51.992;5.924;2023-02-13T08:43:09;103177.75;;;7.59;74.74
69402;BME280;56589;51.992;5.924;2023-02-13T08:45:35;103179.41;;;7.64;74.65
69402;BME280;56589;51.992;5.924;2023-02-13T08:48:01;103184.59;;;7.68;74.68
69402;BME280;56589;51.992;5.924;2023-02-13T08:50:27;103185.38;;;7.75;75.05
69402;BME280;56589;51.992;5.924;2023-02-13T08:52:53;103184.38;;;7.82;74.55
69402;BME280;56589;51.992;5.924;2023-02-13T08:55:21;103181.72;;;7.86;74.70
69402;BME280;56589;51.992;5.924;2023-02-13T08:57:47;103185.13;;;7.92;74.53
69402;BME280;56589;51.992;5.924;2023-02-13T09:02:40;103192.00;;;7.99;74.46
69402;BME280;56589;51.992;5.924;2023-02-13T09:05:06;103193.69;;;8.01;74.24
69402;BME280;56589;51.992;5.924;2023-02-13T09:07:32;103191.94;;;8.03;74.13
69402;BME280;56589;51.992;5.924;2023-02-13T09:09:58;103189.25;;;8.06;74.25
69402;BME280;56589;51.992;5.924;2023-02-13T09:12:26;103193.56;;;8.10;74.09
69402;BME280;56589;51.992;5.924;2023-02-13T09:14:52;103189.13;;;8.14;73.65
69402;BME280;56589;51.992;5.924;2023-02-13T09:17:18;103195.22;;;8.14;73.56
69402;BME280;56589;51.992;5.924;2023-02-13T09:19:44;103186.59;;;8.11;73.86
69402;BME280;56589;51.992;5.924;2023-02-13T09:22:11;103185.69;;;8.12;73.65
69402;BME280;56589;51.992;5.924;2023-02-13T09:24:37;103182.16;;;8.16;74.16
69402;BME280;56589;51.992;5.924;2023-02-13T09:27:03;103184.75;;;8.16;73.79
69402;BME280;56589;51.992;5.924;2023-02-13T09:29:31;103186.47;;;8.19;73.90
69402;BME280;56589;51.992;5.924;2023-02-13T09:31:57;103193.34;;;8.24;74.02
69402;BME280;56589;51.992;5.924;2023-02-13T09:34:23;103185.34;;;8.35;73.74
69402;BME280;56589;51.992;5.924;2023-02-13T09:36:50;103190.41;;;8.44;73.56
69402;BME280;56589;51.992;5.924;2023-02-13T09:39:16;103185.03;;;8.53;73.55
69402;BME280;56589;51.992;5.924;2023-02-13T09:41:43;103185.69;;;8.66;73.25
69402;BME280;56589;51.992;5.924;2023-02-13T09:44:14;103189.03;;;8.74;73.18
69402;BME280;56589;51.992;5.924;2023-02-13T09:46:47;103174.97;;;8.78;72.67
69402;BME280;56589;51.992;5.924;2023-02-13T09:49:15;103181.03;;;8.80;73.10
69402;BME280;56589;51.992;5.924;2023-02-13T09:51:51;103180.91;;;8.88;72.83
69402;BME280;56589;51.992;5.924;2023-02-13T09:54:21;103189.53;;;8.94;72.81
69402;BME280;56589;51.992;5.924;2023-02-13T09:56:50;103188.56;;;8.99;72.38
69402;BME280;56589;51.992;5.924;2023-02-13T09:59:33;103187.63;;;9.03;71.96
69402;BME280;56589;51.992;5.924;2023-02-13T10:02:22;103186.03;;;8.95;71.57
69402;BME280;56589;51.992;5.924;2023-02-13T10:05:07;103182.72;;;8.84;71.55
69402;BME280;56589;51.992;5.924;2023-02-13T10:07:46;103178.41;;;8.82;72.15
69402;BME280;56589;51.992;5.924;2023-02-13T10:10:31;103180.03;;;8.87;71.75
69402;BME280;56589;51.992;5.924;2023-02-13T10:13:25;103183.41;;;8.94;72.28
69402;BME280;56589;51.992;5.924;2023-02-13T10:16:05;103183.25;;;9.03;71.88
69402;BME280;56589;51.992;5.924;2023-02-13T10:18:42;103182.19;;;9.12;71.72
69402;BME280;56589;51.992;5.924;2023-02-13T10:21:18;103182.00;;;9.22;71.40
69402;BME280;56589;51.992;5.924;2023-02-13T10:23:50;103185.22;;;9.37;71.26
69402;BME280;56589;51.992;5.924;2023-02-13T10:26:24;103182.47;;;9.43;70.83
69402;BME280;56589;51.992;5.924;2023-02-13T10:28:56;103182.50;;;9.41;70.58
69402;BME280;56589;51.992;5.924;2023-02-13T10:31:25;103176.53;;;9.35;70.44
69402;BME280;56589;51.992;5.924;2023-02-13T10:33:58;103182.69;;;9.34;70.46
69402;BME280;56589;51.992;5.924;2023-02-13T10:36:29;103189.50;;;9.41;70.54
69402;BME280;56589;51.992;5.924;2023-02-13T10:39:07;103185.88;;;9.48;70.50
69402;BME280;56589;51.992;5.924;2023-02-13T10:41:49;103187.56;;;9.51;70.33
69402;BME280;56589;51.992;5.924;2023-02-13T10:44:27;103186.53;;;9.58;70.32
69402;BME280;56589;51.992;5.924;2023-02-13T10:47:11;103182.22;;;9.57;69.74
69402;BME280;56589;51.992;5.924;2023-02-13T10:49:59;103179.63;;;9.54;69.80
69402;BME280;56589;51.992;5.924;2023-02-13T10:52:46;103173.47;;;9.56;69.93
69402;BME280;56589;51.992;5.924;2023-02-13T10:55:27;103171.59;;;9.61;70.19
69402;BME280;56589;51.992;5.924;2023-02-13T10:58:08;103172.31;;;9.69;69.24
69402;BME280;56589;51.992;5.924;2023-02-13T11:00:45;103172.31;;;9.69;69.38
69402;BME280;56589;51.992;5.924;2023-02-13T11:03:20;103163.72;;;9.63;69.40
69402;BME280;56589;51.992;5.924;2023-02-13T11:05:51;103162.91;;;9.59;69.73
69402;BME280;56589;51.992;5.924;2023-02-13T11:08:20;103162.75;;;9.65;69.70
69402;BME280;56589;51.992;5.924;2023-02-13T11:10:49;103164.44;;;9.69;69.24
69402;BME280;56589;51.992;5.924;2023-02-13T11:13:17;103155.66;;;9.70;69.33
69402;BME280;56589;51.992;5.924;2023-02-13T11:15:56;103153.81;;;9.74;69.24
69402;BME280;56589;51.992;5.924;2023-02-13T11:18:26;103145.16;;;9.70;68.44
69402;BME280;56589;51.992;5.924;2023-02-13T11:21:03;103148.56;;;9.74;68.42
69402;BME280;56589;51.992;5.924;2023-02-13T11:23:36;103142.44;;;9.75;68.94
69402;BME280;56589;51.992;5.924;2023-02-13T11:26:06;103138.03;;;9.77;68.81
69402;BME280;56589;51.992;5.924;2023-02-13T11:28:37;103138.06;;;9.74;68.72
69402;BME280;56589;51.992;5.924;2023-02-13T11:31:12;103130.19;;;9.75;68.48
69402;BME280;56589;51.992;5.924;2023-02-13T11:33:43;103128.34;;;9.81;69.00
69402;BME280;56589;51.992;5.924;2023-02-13T11:36:13;103129.78;;;9.92;68.72
69402;BME280;56589;51.992;5.924;2023-02-13T11:38:40;103128.78;;;9.98;68.35
69402;BME280;56589;51.992;5.924;2023-02-13T11:41:09;103113.56;;;10.12;68.44
69402;BME280;56589;51.992;5.924;2023-02-13T11:43:43;103126.09;;;10.35;68.48
69402;BME280;56589;51.992;5.924;2023-02-13T11:46:17;103118.75;;;10.49;67.81
69402;BME280;56589;51.992;5.924;2023-02-13T11:48:56;103110.69;;;10.55;66.83
69402;BME280;56589;51.992;5.924;2023-02-13T11:51:43;103111.56;;;10.56;67.17
69402;BME280;56589;51.992;5.924;2023-02-13T11:54:22;103116.72;;;10.59;67.57
69402;BME280;56589;51.992;5.924;2023-02-13T11:56:53;103116.38;;;10.71;67.71
69402;BME280;56589;51.992;5.924;2023-02-13T11:59:21;103116.91;;;10.86;67.16
69402;BME280;56589;51.992;5.924;2023-02-13T12:02:01;103112.97;;;11.00;67.00
69402;BME280;56589;51.992;5.924;2023-02-13T12:04:29;103115.38;;;11.08;66.87
69402;BME280;56589;51.992;5.924;2023-02-13T12:07:02;103111.59;;;11.18;65.95
69402;BME280;56589;51.992;5.924;2023-02-13T12:09:38;103100.41;;;11.12;65.66
69402;BME280;56589;51.992;5.924;2023-02-13T12:12:06;103101.50;;;11.03;65.83
69402;BME280;56589;51.992;5.924;2023-02-13T12:14:42;103100.81;;;10.96;65.56
69402;BME280;56589;51.992;5.924;2023-02-13T12:17:14;103097.59;;;10.87;65.70
69402;BME280;56589;51.992;5.924;2023-02-13T12:19:46;103098.34;;;10.92;66.01
69402;BME280;56589;51.992;5.924;2023-02-13T12:22:29;103097.25;;;10.99;64.82
69402;BME280;56589;51.992;5.924;2023-02-13T12:28:09;103098.25;;;10.95;65.50
69402;BME280;56589;51.992;5.924;2023-02-13T12:30:48;103098.88;;;11.03;65.99
69402;BME280;56589;51.992;5.924;2023-02-13T12:36:35;103099.91;;;11.27;64.93
69402;BME280;56589;51.992;5.924;2023-02-13T12:39:24;103092.19;;;11.22;65.49
69402;BME280;56589;51.992;5.924;2023-02-13T12:42:11;103090.56;;;11.18;64.93
69402;BME280;56589;51.992;5.924;2023-02-13T12:47:41;103081.00;;;11.16;65.05
69402;BME280;56589;51.992;5.924;2023-02-13T12:50:37;103079.22;;;11.16;65.71
69402;BME280;56589;51.992;5.924;2023-02-13T12:53:29;103075.75;;;11.14;65.38
69402;BME280;56589;51.992;5.924;2023-02-13T12:56:36;103067.19;;;11.07;64.94
69402;BME280;56589;51.992;5.924;2023-02-13T12:59:14;103067.19;;;11.07;65.82
69402;BME280;56589;51.992;5.924;2023-02-13T13:02:14;103067.84;;;11.16;65.67
69402;BME280;56589;51.992;5.924;2023-02-13T13:05:04;103056.44;;;11.15;65.03
69402;BME280;56589;51.992;5.924;2023-02-13T13:07:52;103059.38;;;11.06;65.09
69402;BME280;56589;51.992;5.924;2023-02-13T13:10:45;103057.66;;;11.05;65.58
69402;BME280;56589;51.992;5.924;2023-02-13T13:13:29;103056.56;;;11.12;66.03
69402;BME280;56589;51.992;5.924;2023-02-13T13:16:12;103057.16;;;11.22;65.32
69402;BME280;56589;51.992;5.924;2023-02-13T13:18:55;103048.53;;;11.17;65.02
69402;BME280;56589;51.992;5.924;2023-02-13T13:21:37;103053.00;;;11.13;65.18
69402;BME280;56589;51.992;5.924;2023-02-13T13:24:21;103056.59;;;11.10;65.00
69402;BME280;56589;51.992;5.924;2023-02-13T13:26:58;103047.88;;;11.10;65.18
69402;BME280;56589;51.992;5.924;2023-02-13T13:29:34;103038.97;;;11.14;65.41
69402;BME280;56589;51.992;5.924;2023-02-13T13:32:12;103041.56;;;11.16;65.43
69402;BME280;56589;51.992;5.924;2023-02-13T13:34:41;103041.56;;;11.16;65.07
69402;BME280;56589;51.992;5.924;2023-02-13T13:37:15;103044.03;;;11.20;65.49